sensor_id;sensor_type;location;lat;lon;timestamp;pressure;altitude;pressure_sealevel;temperature;humidity
72525;BME280;60547;48.502;8.996;2022-10-30T00:01:16;98388.09;;;11.58;95.43
72525;BME280;60547;48.502;8.996;2022-10-30T00:03:42;98397.16;;;11.62;94.53
72525;BME280;60547;48.502;8.996;2022-10-30T00:06:07;98390.00;;;11.61;94.97
72525;BME280;60547;48.502;8.996;2022-10-30T00:08:33;98389.66;;;11.59;95.07
72525;BME280;60547;48.502;8.996;2022-10-30T00:11:05;98389.31;;;11.57;94.89
72525;BME280;60547;48.502;8.996;2022-10-30T00:13:30;98385.81;;;11.53;95.29
72525;BME280;60547;48.502;8.996;2022-10-30T00:15:56;98393.31;;;11.56;95.09
72525;BME280;60547;48.502;8.996;2022-10-30T00:18:21;98390.09;;;11.57;95.13
72525;BME280;60547;48.502;8.996;2022-10-30T00:20:47;98380.22;;;11.53;94.73
72525;BME280;60547;48.502;8.996;2022-10-30T00:23:12;98383.88;;;11.50;94.87
72525;BME280;60547;48.502;8.996;2022-10-30T00:25:38;98384.22;;;11.52;95.29
72525;BME280;60547;48.502;8.996;2022-10-30T00:28:04;98383.16;;;11.46;95.34
72525;BME280;60547;48.502;8.996;2022-10-30T00:30:32;98377.59;;;11.46;95.53
72525;BME280;60547;48.502;8.996;2022-10-30T00:32:57;98366.53;;;11.42;95.59
72525;BME280;60547;48.502;8.996;2022-10-30T00:35:23;98368.16;;;11.40;95.70
72525;BME280;60547;48.502;8.996;2022-10-30T00:37:48;98361.75;;;11.43;95.82
72525;BME280;60547;48.502;8.996;2022-10-30T00:40:15;98363.38;;;11.40;95.72
72525;BME280;60547;48.502;8.996;2022-10-30T00:42:41;98368.03;;;11.47;95.50
72525;BME280;60547;48.502;8.996;2022-10-30T00:45:11;98359.72;;;11.43;95.07
72525;BME280;60547;48.502;8.996;2022-10-30T00:47:41;98356.66;;;11.38;94.86
72525;BME280;60547;48.502;8.996;2022-10-30T00:50:31;98351.53;;;11.36;95.05
72525;BME280;60547;48.502;8.996;2022-10-30T00:53:02;98358.41;;;11.31;95.34
72525;BME280;60547;48.502;8.996;2022-10-30T00:55:33;98357.97;;;11.33;95.19
72525;BME280;60547;48.502;8.996;2022-10-30T00:58:00;98362.69;;;11.36;95.10
72525;BME280;60547;48.502;8.996;2022-10-30T01:00:28;98362.03;;;11.28;95.16
72525;BME280;60547;48.502;8.996;2022-10-30T01:02:54;98369.19;;;11.29;95.47
72525;BME280;60547;48.502;8.996;2022-10-30T01:05:22;98360.47;;;11.27;95.19
72525;BME280;60547;48.502;8.996;2022-10-30T01:07:49;98364.53;;;11.23;94.69
72525;BME280;60547;48.502;8.996;2022-10-30T01:10:15;98372.91;;;11.23;94.85
72525;BME280;60547;48.502;8.996;2022-10-30T01:12:42;98370.91;;;11.23;94.71
72525;BME280;60547;48.502;8.996;2022-10-30T01:15:09;98374.03;;;11.25;94.88
72525;BME280;60547;48.502;8.996;2022-10-30T01:17:50;98375.97;;;11.28;95.03
72525;BME280;60547;48.502;8.996;2022-10-30T01:20:38;98375.63;;;11.26;94.87
72525;BME280;60547;48.502;8.996;2022-10-30T01:23:36;98362.91;;;11.25;94.82
72525;BME280;60547;48.502;8.996;2022-10-30T01:26:18;98370.03;;;11.26;94.40
72525;BME280;60547;48.502;8.996;2022-10-30T01:29:02;98363.75;;;11.22;94.16
72525;BME280;60547;48.502;8.996;2022-10-30T01:34:18;98368.47;;;11.25;94.37
72525;BME280;60547;48.502;8.996;2022-10-30T01:39:25;98355.34;;;11.06;94.64
72525;BME280;60547;48.502;8.996;2022-10-30T01:41:52;98362.84;;;11.09;94.85
72525;BME280;60547;48.502;8.996;2022-10-30T01:44:22;98360.91;;;11.06;94.92
72525;BME280;60547;48.502;8.996;2022-10-30T01:49:58;98367.34;;;11.03;94.80
72525;BME280;60547;48.502;8.996;2022-10-30T01:52:59;98347.78;;;11.07;94.26
72525;BME280;60547;48.502;8.996;2022-10-30T01:58:23;98353.06;;;11.01;94.62
72525;BME280;60547;48.502;8.996;2022-10-30T02:00:54;98345.19;;;10.96;94.83
72525;BME280;60547;48.502;8.996;2022-10-30T02:03:21;98337.91;;;11.02;94.54
72525;BME280;60547;48.502;8.996;2022-10-30T02:05:48;98341.19;;;10.97;94.86
72525;BME280;60547;48.502;8.996;2022-10-30T02:08:14;98342.91;;;10.91;94.78
72525;BME280;60547;48.502;8.996;2022-10-30T02:10:41;98347.75;;;10.87;94.61
72525;BME280;60547;48.502;8.996;2022-10-30T02:13:08;98343.41;;;10.86;94.77
72525;BME280;60547;48.502;8.996;2022-10-30T02:15:34;98341.47;;;10.83;95.07
72525;BME280;60547;48.502;8.996;2022-10-30T02:18:00;98336.28;;;10.85;95.08
72525;BME280;60547;48.502;8.996;2022-10-30T02:20:25;98336.69;;;10.83;95.17
72525;BME280;60547;48.502;8.996;2022-10-30T02:22:51;98343.06;;;10.84;94.86
72525;BME280;60547;48.502;8.996;2022-10-30T02:25:17;98339.97;;;10.78;94.96
72525;BME280;60547;48.502;8.996;2022-10-30T02:27:43;98340.34;;;10.80;95.07
72525;BME280;60547;48.502;8.996;2022-10-30T02:30:09;98336.28;;;10.85;94.73
72525;BME280;60547;48.502;8.996;2022-10-30T02:32:35;98337.47;;;10.84;94.73
72525;BME280;60547;48.502;8.996;2022-10-30T02:35:00;98327.91;;;10.85;95.21
72525;BME280;60547;48.502;8.996;2022-10-30T02:37:28;98325.28;;;10.78;94.91
72525;BME280;60547;48.502;8.996;2022-10-30T02:39:54;98321.28;;;10.79;94.97
72525;BME280;60547;48.502;8.996;2022-10-30T02:42:19;98326.84;;;10.79;95.02
72525;BME280;60547;48.502;8.996;2022-10-30T02:44:44;98327.56;;;10.83;95.11
72525;BME280;60547;48.502;8.996;2022-10-30T02:47:10;98323.28;;;10.78;94.94
72525;BME280;60547;48.502;8.996;2022-10-30T02:49:35;98316.56;;;10.76;94.97
72525;BME280;60547;48.502;8.996;2022-10-30T02:52:00;98322.63;;;10.71;94.84
72525;BME280;60547;48.502;8.996;2022-10-30T02:54:26;98317.78;;;10.75;94.82
72525;BME280;60547;48.502;8.996;2022-10-30T02:56:51;98320.63;;;10.71;94.56
72525;BME280;60547;48.502;8.996;2022-10-30T02:59:17;98317.91;;;10.67;94.63
72525;BME280;60547;48.502;8.996;2022-10-30T03:01:42;98316.28;;;10.70;95.30
72525;BME280;60547;48.502;8.996;2022-10-30T03:04:08;98314.00;;;10.65;94.85
72525;BME280;60547;48.502;8.996;2022-10-30T03:06:33;98322.75;;;10.63;95.19
72525;BME280;60547;48.502;8.996;2022-10-30T03:08:59;98312.50;;;10.60;95.23
72525;BME280;60547;48.502;8.996;2022-10-30T03:11:24;98326.75;;;10.62;95.39
72525;BME280;60547;48.502;8.996;2022-10-30T03:13:50;98321.63;;;10.61;95.35
72525;BME280;60547;48.502;8.996;2022-10-30T03:16:18;98318.06;;;10.60;95.15
72525;BME280;60547;48.502;8.996;2022-10-30T03:18:43;98328.34;;;10.63;94.91
72525;BME280;60547;48.502;8.996;2022-10-30T03:21:11;98330.75;;;10.61;94.45
72525;BME280;60547;48.502;8.996;2022-10-30T03:23:37;98330.03;;;10.57;94.59
72525;BME280;60547;48.502;8.996;2022-10-30T03:26:03;98333.19;;;10.59;94.60
72525;BME280;60547;48.502;8.996;2022-10-30T03:28:29;98332.81;;;10.57;94.61
72525;BME280;60547;48.502;8.996;2022-10-30T03:31:00;98332.47;;;10.55;95.05
72525;BME280;60547;48.502;8.996;2022-10-30T03:33:26;98329.81;;;10.48;94.87
72525;BME280;60547;48.502;8.996;2022-10-30T03:35:52;98335.00;;;10.46;94.38
72525;BME280;60547;48.502;8.996;2022-10-30T03:38:17;98334.28;;;10.42;94.53
72525;BME280;60547;48.502;8.996;2022-10-30T03:40:42;98340.69;;;10.39;94.40
72525;BME280;60547;48.502;8.996;2022-10-30T03:43:08;98345.91;;;10.37;94.04
72525;BME280;60547;48.502;8.996;2022-10-30T03:45:35;98347.19;;;10.32;94.18
72525;BME280;60547;48.502;8.996;2022-10-30T03:48:01;98349.53;;;10.34;94.27
72525;BME280;60547;48.502;8.996;2022-10-30T03:50:26;98349.59;;;10.30;94.13
72525;BME280;60547;48.502;8.996;2022-10-30T03:52:53;98357.88;;;10.34;94.02
72525;BME280;60547;48.502;8.996;2022-10-30T03:55:19;98355.94;;;10.31;94.01
72525;BME280;60547;48.502;8.996;2022-10-30T03:57:44;98346.88;;;10.27;94.12
72525;BME280;60547;48.502;8.996;2022-10-30T04:00:11;98347.25;;;10.29;93.88
72525;BME280;60547;48.502;8.996;2022-10-30T04:02:37;98347.25;;;10.29;94.18
72525;BME280;60547;48.502;8.996;2022-10-30T04:05:03;98347.25;;;10.29;93.75
72525;BME280;60547;48.502;8.996;2022-10-30T04:07:28;98339.75;;;10.26;93.99
72525;BME280;60547;48.502;8.996;2022-10-30T04:09:54;98346.38;;;10.32;94.42
72525;BME280;60547;48.502;8.996;2022-10-30T04:12:20;98343.72;;;10.25;94.12
72525;BME280;60547;48.502;8.996;2022-10-30T04:14:45;98342.22;;;10.20;94.12
72525;BME280;60547;48.502;8.996;2022-10-30T04:17:11;98353.66;;;10.26;93.96
72525;BME280;60547;48.502;8.996;2022-10-30T04:19:37;98348.56;;;10.21;93.38
72525;BME280;60547;48.502;8.996;2022-10-30T04:22:02;98341.44;;;10.20;93.35
72525;BME280;60547;48.502;8.996;2022-10-30T04:24:28;98341.03;;;10.18;92.82
72525;BME280;60547;48.502;8.996;2022-10-30T04:26:53;98342.63;;;10.19;92.97
72525;BME280;60547;48.502;8.996;2022-10-30T04:29:19;98335.19;;;10.12;92.51
72525;BME280;60547;48.502;8.996;2022-10-30T04:31:44;98340.06;;;10.04;93.18
72525;BME280;60547;48.502;8.996;2022-10-30T04:34:10;98341.41;;;9.96;94.08
72525;BME280;60547;48.502;8.996;2022-10-30T04:36:36;98339.81;;;9.95;93.77
72525;BME280;60547;48.502;8.996;2022-10-30T04:39:02;98341.41;;;9.96;94.57
72525;BME280;60547;48.502;8.996;2022-10-30T04:41:28;98336.25;;;9.95;94.36
72525;BME280;60547;48.502;8.996;2022-10-30T04:43:53;98346.59;;;9.94;94.34
72525;BME280;60547;48.502;8.996;2022-10-30T04:46:19;98344.16;;;9.96;94.47
72525;BME280;60547;48.502;8.996;2022-10-30T04:48:45;98337.47;;;9.94;94.26
72525;BME280;60547;48.502;8.996;2022-10-30T04:51:10;98343.81;;;9.94;94.31
72525;BME280;60547;48.502;8.996;2022-10-30T04:53:40;98339.47;;;9.93;94.26
72525;BME280;60547;48.502;8.996;2022-10-30T04:56:06;98342.66;;;9.92;93.86
72525;BME280;60547;48.502;8.996;2022-10-30T04:58:32;98332.81;;;9.87;94.16
72525;BME280;60547;48.502;8.996;2022-10-30T05:01:05;98347.44;;;9.91;94.24
72525;BME280;60547;48.502;8.996;2022-10-30T05:03:30;98334.47;;;9.81;93.78
72525;BME280;60547;48.502;8.996;2022-10-30T05:05:59;98343.91;;;9.87;93.44
72525;BME280;60547;48.502;8.996;2022-10-30T05:08:26;98346.34;;;9.85;93.47
72525;BME280;60547;48.502;8.996;2022-10-30T05:10:52;98339.31;;;9.77;93.33
72525;BME280;60547;48.502;8.996;2022-10-30T05:13:18;98338.53;;;9.77;93.29
72525;BME280;60547;48.502;8.996;2022-10-30T05:15:44;98323.84;;;9.76;93.46
72525;BME280;60547;48.502;8.996;2022-10-30T05:18:09;98329.41;;;9.76;93.32
72525;BME280;60547;48.502;8.996;2022-10-30T05:20:35;98329.88;;;9.71;93.62
72525;BME280;60547;48.502;8.996;2022-10-30T05:23:00;98337.84;;;9.69;93.65
72525;BME280;60547;48.502;8.996;2022-10-30T05:25:26;98329.94;;;9.67;93.04
72525;BME280;60547;48.502;8.996;2022-10-30T05:28:03;98320.88;;;9.63;93.18
72525;BME280;60547;48.502;8.996;2022-10-30T05:30:31;98334.34;;;9.65;93.21
72525;BME280;60547;48.502;8.996;2022-10-30T05:33:02;98330.47;;;9.59;93.47
72525;BME280;60547;48.502;8.996;2022-10-30T05:35:28;98326.09;;;9.58;93.63
72525;BME280;60547;48.502;8.996;2022-10-30T05:37:57;98330.81;;;9.61;93.75
72525;BME280;60547;48.502;8.996;2022-10-30T05:40:22;98315.84;;;9.55;93.66
72525;BME280;60547;48.502;8.996;2022-10-30T05:42:48;98320.66;;;9.51;93.60
72525;BME280;60547;48.502;8.996;2022-10-30T05:45:14;98330.56;;;9.52;93.87
72525;BME280;60547;48.502;8.996;2022-10-30T05:47:40;98334.06;;;9.56;94.09
72525;BME280;60547;48.502;8.996;2022-10-30T05:50:06;98330.81;;;9.61;93.71
72525;BME280;60547;48.502;8.996;2022-10-30T05:52:31;98327.69;;;9.59;93.73
72525;BME280;60547;48.502;8.996;2022-10-30T05:54:57;98324.16;;;9.55;93.78
72525;BME280;60547;48.502;8.996;2022-10-30T05:57:22;98334.03;;;9.59;93.82
72525;BME280;60547;48.502;8.996;2022-10-30T05:59:48;98328.53;;;9.56;93.17
72525;BME280;60547;48.502;8.996;2022-10-30T06:02:13;98332.44;;;9.58;92.88
72525;BME280;60547;48.502;8.996;2022-10-30T06:04:40;98345.56;;;9.58;93.10
72525;BME280;60547;48.502;8.996;2022-10-30T06:07:06;98336.47;;;9.54;93.45
72525;BME280;60547;48.502;8.996;2022-10-30T06:09:31;98344.09;;;9.50;93.75
72525;BME280;60547;48.502;8.996;2022-10-30T06:11:57;98340.53;;;9.49;93.16
72525;BME280;60547;48.502;8.996;2022-10-30T06:14:22;98349.63;;;9.50;93.62
72525;BME280;60547;48.502;8.996;2022-10-30T06:16:49;98351.16;;;9.54;93.47
72525;BME280;60547;48.502;8.996;2022-10-30T06:19:14;98349.97;;;9.55;93.68
72525;BME280;60547;48.502;8.996;2022-10-30T06:21:40;98357.88;;;9.57;93.33
72525;BME280;60547;48.502;8.996;2022-10-30T06:24:06;98350.84;;;9.49;93.35
72525;BME280;60547;48.502;8.996;2022-10-30T06:26:31;98348.47;;;9.47;93.38
72525;BME280;60547;48.502;8.996;2022-10-30T06:28:57;98352.41;;;9.50;93.47
72525;BME280;60547;48.502;8.996;2022-10-30T06:31:22;98350.06;;;9.48;93.43
72525;BME280;60547;48.502;8.996;2022-10-30T06:33:48;98362.22;;;9.58;93.36
72525;BME280;60547;48.502;8.996;2022-10-30T06:36:13;98337.38;;;9.47;93.31
72525;BME280;60547;48.502;8.996;2022-10-30T06:38:39;98351.56;;;9.53;93.50
72525;BME280;60547;48.502;8.996;2022-10-30T06:41:04;98356.25;;;9.59;93.54
72525;BME280;60547;48.502;8.996;2022-10-30T06:43:30;98360.66;;;9.57;93.98
72525;BME280;60547;48.502;8.996;2022-10-30T06:45:58;98352.78;;;9.52;93.88
72525;BME280;60547;48.502;8.996;2022-10-30T06:48:24;98347.59;;;9.54;94.40
72525;BME280;60547;48.502;8.996;2022-10-30T06:50:57;98353.53;;;9.56;94.12
72525;BME280;60547;48.502;8.996;2022-10-30T06:53:23;98359.41;;;9.61;94.19
72525;BME280;60547;48.502;8.996;2022-10-30T06:55:54;98351.47;;;9.60;94.42
72525;BME280;60547;48.502;8.996;2022-10-30T06:58:20;98355.78;;;9.64;94.70
72525;BME280;60547;48.502;8.996;2022-10-30T07:00:46;98350.22;;;9.64;94.58
72525;BME280;60547;48.502;8.996;2022-10-30T07:03:12;98359.25;;;9.72;94.80
72525;BME280;60547;48.502;8.996;2022-10-30T07:05:37;98352.91;;;9.71;94.85
72525;BME280;60547;48.502;8.996;2022-10-30T07:08:05;98350.78;;;9.79;94.71
72525;BME280;60547;48.502;8.996;2022-10-30T07:10:31;98358.97;;;9.90;94.92
72525;BME280;60547;48.502;8.996;2022-10-30T07:12:57;98360.22;;;9.85;95.25
72525;BME280;60547;48.502;8.996;2022-10-30T07:15:24;98371.25;;;9.92;95.46
72525;BME280;60547;48.502;8.996;2022-10-30T07:18:00;98366.06;;;9.94;94.82
72525;BME280;60547;48.502;8.996;2022-10-30T07:20:28;98366.78;;;9.98;94.20
72525;BME280;60547;48.502;8.996;2022-10-30T07:22:54;98369.09;;;10.03;93.82
72525;BME280;60547;48.502;8.996;2022-10-30T07:25:20;98365.09;;;10.04;93.88
72525;BME280;60547;48.502;8.996;2022-10-30T07:27:50;98356.81;;;10.01;94.21
72525;BME280;60547;48.502;8.996;2022-10-30T07:30:18;98361.88;;;10.06;94.18
72525;BME280;60547;48.502;8.996;2022-10-30T07:32:44;98360.31;;;10.05;94.30
72525;BME280;60547;48.502;8.996;2022-10-30T07:35:12;98366.31;;;10.03;94.43
72525;BME280;60547;48.502;8.996;2022-10-30T07:37:39;98365.81;;;10.09;94.81
72525;BME280;60547;48.502;8.996;2022-10-30T07:40:06;98367.41;;;10.10;94.76
72525;BME280;60547;48.502;8.996;2022-10-30T07:42:32;98368.13;;;10.14;95.11
72525;BME280;60547;48.502;8.996;2022-10-30T07:44:57;98361.78;;;10.13;94.88
72525;BME280;60547;48.502;8.996;2022-10-30T07:47:23;98367.66;;;10.19;94.96
72525;BME280;60547;48.502;8.996;2022-10-30T07:49:49;98367.19;;;10.24;94.65
72525;BME280;60547;48.502;8.996;2022-10-30T07:52:14;98362.41;;;10.24;94.74
72525;BME280;60547;48.502;8.996;2022-10-30T07:54:40;98371.84;;;10.30;94.96
72525;BME280;60547;48.502;8.996;2022-10-30T07:57:08;98370.22;;;10.33;94.83
72525;BME280;60547;48.502;8.996;2022-10-30T07:59:34;98374.09;;;10.39;94.74
72525;BME280;60547;48.502;8.996;2022-10-30T08:01:59;98367.66;;;10.42;93.97
72525;BME280;60547;48.502;8.996;2022-10-30T08:04:25;98378.75;;;10.46;94.50
72525;BME280;60547;48.502;8.996;2022-10-30T08:06:52;98375.97;;;10.46;94.10
72525;BME280;60547;48.502;8.996;2022-10-30T08:09:17;98370.03;;;10.44;94.10
72525;BME280;60547;48.502;8.996;2022-10-30T08:11:43;98365.63;;;10.46;94.36
72525;BME280;60547;48.502;8.996;2022-10-30T08:14:11;98363.50;;;10.54;93.64
72525;BME280;60547;48.502;8.996;2022-10-30T08:16:36;98376.00;;;10.65;93.59
72525;BME280;60547;48.502;8.996;2022-10-30T08:19:02;98364.81;;;10.69;92.64
72525;BME280;60547;48.502;8.996;2022-10-30T08:21:27;98367.94;;;10.71;93.01
72525;BME280;60547;48.502;8.996;2022-10-30T08:23:53;98365.72;;;10.62;92.87
72525;BME280;60547;48.502;8.996;2022-10-30T08:26:19;98370.66;;;10.75;92.52
72525;BME280;60547;48.502;8.996;2022-10-30T08:28:44;98358.59;;;10.81;91.72
72525;BME280;60547;48.502;8.996;2022-10-30T08:31:10;98365.97;;;10.91;91.10
72525;BME280;60547;48.502;8.996;2022-10-30T08:33:35;98368.97;;;11.00;90.93
72525;BME280;60547;48.502;8.996;2022-10-30T08:36:01;98364.06;;;11.08;91.06
72525;BME280;60547;48.502;8.996;2022-10-30T08:38:27;98353.13;;;11.17;90.81
72525;BME280;60547;48.502;8.996;2022-10-30T08:40:53;98368.31;;;11.32;90.36
72525;BME280;60547;48.502;8.996;2022-10-30T08:43:19;98364.59;;;11.39;90.32
72525;BME280;60547;48.502;8.996;2022-10-30T08:45:45;98362.81;;;11.49;90.76
72525;BME280;60547;48.502;8.996;2022-10-30T08:48:13;98358.22;;;11.58;90.84
72525;BME280;60547;48.502;8.996;2022-10-30T08:50:40;98354.91;;;11.63;90.46
72525;BME280;60547;48.502;8.996;2022-10-30T08:53:10;98365.75;;;11.78;91.08
72525;BME280;60547;48.502;8.996;2022-10-30T08:55:39;98358.38;;;11.87;90.00
72525;BME280;60547;48.502;8.996;2022-10-30T08:58:05;98352.38;;;12.05;89.33
72525;BME280;60547;48.502;8.996;2022-10-30T09:00:31;98350.63;;;12.11;90.12
72525;BME280;60547;48.502;8.996;2022-10-30T09:02:57;98350.72;;;12.24;90.09
72525;BME280;60547;48.502;8.996;2022-10-30T09:05:22;98353.16;;;12.38;89.96
72525;BME280;60547;48.502;8.996;2022-10-30T09:07:48;98348.25;;;12.42;90.36
72525;BME280;60547;48.502;8.996;2022-10-30T09:10:14;98338.47;;;12.50;90.27
72525;BME280;60547;48.502;8.996;2022-10-30T09:12:39;98340.16;;;12.77;90.10
72525;BME280;60547;48.502;8.996;2022-10-30T09:15:06;98345.22;;;12.82;89.05
72525;BME280;60547;48.502;8.996;2022-10-30T09:17:32;98346.16;;;12.91;89.50
72525;BME280;60547;48.502;8.996;2022-10-30T09:19:57;98343.97;;;13.12;89.37
72525;BME280;60547;48.502;8.996;2022-10-30T09:22:23;98343.09;;;13.15;88.37
72525;BME280;60547;48.502;8.996;2022-10-30T09:24:48;98345.06;;;13.31;89.31
72525;BME280;60547;48.502;8.996;2022-10-30T09:27:14;98329.75;;;13.35;88.38
72525;BME280;60547;48.502;8.996;2022-10-30T09:29:39;98347.09;;;13.55;88.58
72525;BME280;60547;48.502;8.996;2022-10-30T09:32:05;98337.16;;;13.67;87.31
72525;BME280;60547;48.502;8.996;2022-10-30T09:34:37;98342.31;;;13.81;87.34
72525;BME280;60547;48.502;8.996;2022-10-30T09:37:04;98337.94;;;13.93;86.52
72525;BME280;60547;48.502;8.996;2022-10-30T09:39:30;98335.34;;;14.11;88.18
72525;BME280;60547;48.502;8.996;2022-10-30T09:55:33;98336.75;;;15.10;83.73
72525;BME280;60547;48.502;8.996;2022-10-30T09:58:10;98342.22;;;15.36;81.91
72525;BME280;60547;48.502;8.996;2022-10-30T10:00:53;98351.00;;;15.47;83.85
72525;BME280;60547;48.502;8.996;2022-10-30T10:05:55;98328.09;;;15.70;80.90
72525;BME280;60547;48.502;8.996;2022-10-30T10:08:28;98334.06;;;15.81;78.93
72525;BME280;60547;48.502;8.996;2022-10-30T10:10:59;98346.28;;;15.97;78.58
72525;BME280;60547;48.502;8.996;2022-10-30T10:16:16;98342.34;;;16.34;79.08
72525;BME280;60547;48.502;8.996;2022-10-30T10:19:15;98342.81;;;16.42;78.27
72525;BME280;60547;48.502;8.996;2022-10-30T10:21:52;98339.59;;;16.62;76.55
72525;BME280;60547;48.502;8.996;2022-10-30T10:24:37;98331.50;;;16.82;76.75
72525;BME280;60547;48.502;8.996;2022-10-30T10:32:26;98328.81;;;17.24;73.79
72525;BME280;60547;48.502;8.996;2022-10-30T10:37:57;98319.84;;;17.53;73.72
72525;BME280;60547;48.502;8.996;2022-10-30T10:46:09;98318.03;;;18.16;70.32
72525;BME280;60547;48.502;8.996;2022-10-30T10:51:33;98304.56;;;18.44;68.61
72525;BME280;60547;48.502;8.996;2022-10-30T10:54:11;98309.94;;;18.66;68.66
72525;BME280;60547;48.502;8.996;2022-10-30T10:56:40;98299.66;;;18.78;67.17
72525;BME280;60547;48.502;8.996;2022-10-30T11:04:46;98299.44;;;19.49;66.29
72525;BME280;60547;48.502;8.996;2022-10-30T11:07:32;98286.28;;;19.46;68.11
72525;BME280;60547;48.502;8.996;2022-10-30T11:09:57;98285.91;;;19.39;65.92
72525;BME280;60547;48.502;8.996;2022-10-30T11:12:35;98286.69;;;19.24;64.45
72525;BME280;60547;48.502;8.996;2022-10-30T11:15:15;98275.97;;;19.28;64.03
72525;BME280;60547;48.502;8.996;2022-10-30T11:23:41;98276.19;;;19.54;63.33
72525;BME280;60547;48.502;8.996;2022-10-30T11:31:19;98287.66;;;19.80;64.60
72525;BME280;60547;48.502;8.996;2022-10-30T11:33:46;98283.16;;;19.88;63.80
72525;BME280;60547;48.502;8.996;2022-10-30T11:36:16;98280.97;;;19.98;64.75
72525;BME280;60547;48.502;8.996;2022-10-30T11:38:42;98281.72;;;20.13;63.52
72525;BME280;60547;48.502;8.996;2022-10-30T11:41:08;98287.81;;;20.26;64.39
72525;BME280;60547;48.502;8.996;2022-10-30T11:43:39;98285.22;;;20.43;63.89
72525;BME280;60547;48.502;8.996;2022-10-30T11:46:08;98269.19;;;20.55;66.03
72525;BME280;60547;48.502;8.996;2022-10-30T11:48:41;98274.97;;;20.66;63.00
72525;BME280;60547;48.502;8.996;2022-10-30T11:51:08;98270.72;;;20.76;63.04
72525;BME280;60547;48.502;8.996;2022-10-30T11:53:40;98268.41;;;21.01;63.45
72525;BME280;60547;48.502;8.996;2022-10-30T11:56:16;98264.44;;;21.13;62.65
72525;BME280;60547;48.502;8.996;2022-10-30T11:58:45;98257.91;;;21.27;62.11
72525;BME280;60547;48.502;8.996;2022-10-30T12:01:19;98257.78;;;21.42;61.55
72525;BME280;60547;48.502;8.996;2022-10-30T12:03:45;98264.00;;;21.46;61.35
72525;BME280;60547;48.502;8.996;2022-10-30T12:11:31;98245.31;;;21.59;63.57
72525;BME280;60547;48.502;8.996;2022-10-30T12:13:57;98241.19;;;21.60;60.56
72525;BME280;60547;48.502;8.996;2022-10-30T12:16:23;98247.50;;;21.76;61.59
72525;BME280;60547;48.502;8.996;2022-10-30T12:18:56;98245.13;;;21.69;59.95
72525;BME280;60547;48.502;8.996;2022-10-30T12:21:24;98238.59;;;21.57;60.81
72525;BME280;60547;48.502;8.996;2022-10-30T12:23:55;98246.41;;;21.68;60.82
72525;BME280;60547;48.502;8.996;2022-10-30T12:26:22;98235.28;;;21.64;59.81
72525;BME280;60547;48.502;8.996;2022-10-30T12:28:54;98225.28;;;21.69;61.52
72525;BME280;60547;48.502;8.996;2022-10-30T12:31:38;98223.28;;;21.75;60.22
72525;BME280;60547;48.502;8.996;2022-10-30T12:36:49;98220.47;;;21.80;60.41
72525;BME280;60547;48.502;8.996;2022-10-30T12:39:27;98216.22;;;22.02;59.54
72525;BME280;60547;48.502;8.996;2022-10-30T12:42:28;98215.78;;;22.09;60.74
72525;BME280;60547;48.502;8.996;2022-10-30T12:45:23;98223.31;;;22.23;59.12
72525;BME280;60547;48.502;8.996;2022-10-30T12:47:58;98217.94;;;22.31;59.03
72525;BME280;60547;48.502;8.996;2022-10-30T12:50:41;98221.03;;;22.33;60.60
72525;BME280;60547;48.502;8.996;2022-10-30T12:53:26;98217.19;;;22.36;58.93
72525;BME280;60547;48.502;8.996;2022-10-30T12:55:59;98218.72;;;22.31;60.50
72525;BME280;60547;48.502;8.996;2022-10-30T12:58:43;98209.47;;;22.36;61.00
72525;BME280;60547;48.502;8.996;2022-10-30T13:01:14;98211.28;;;22.39;60.54
72525;BME280;60547;48.502;8.996;2022-10-30T13:03:52;98203.59;;;22.51;61.59
72525;BME280;60547;48.502;8.996;2022-10-30T13:06:23;98197.66;;;22.49;60.03
72525;BME280;60547;48.502;8.996;2022-10-30T13:09:14;98197.91;;;22.51;61.37
72525;BME280;60547;48.502;8.996;2022-10-30T13:11:56;98197.16;;;22.62;61.10
72525;BME280;60547;48.502;8.996;2022-10-30T13:16:56;98186.09;;;22.69;62.76
72525;BME280;60547;48.502;8.996;2022-10-30T13:19:22;98192.78;;;22.66;61.31
72525;BME280;60547;48.502;8.996;2022-10-30T13:22:06;98194.53;;;22.47;61.60
72525;BME280;60547;48.502;8.996;2022-10-30T13:24:43;98201.03;;;22.64;61.76
72525;BME280;60547;48.502;8.996;2022-10-30T13:27:20;98194.88;;;22.71;62.85
72525;BME280;60547;48.502;8.996;2022-10-30T13:36:09;98203.72;;;22.96;60.85
72525;BME280;60547;48.502;8.996;2022-10-30T13:40:53;98195.72;;;23.00;60.15
72525;BME280;60547;48.502;8.996;2022-10-30T13:54:22;98192.63;;;22.98;60.66
72525;BME280;60547;48.502;8.996;2022-10-30T13:56:50;98191.84;;;22.92;62.11
72525;BME280;60547;48.502;8.996;2022-10-30T13:59:25;98203.72;;;22.96;59.00
72525;BME280;60547;48.502;8.996;2022-10-30T14:05:13;98195.72;;;23.00;58.65
72525;BME280;60547;48.502;8.996;2022-10-30T14:10:49;98208.38;;;23.10;62.00
72525;BME280;60547;48.502;8.996;2022-10-30T14:21:54;98206.97;;;22.66;63.16
72525;BME280;60547;48.502;8.996;2022-10-30T14:24:27;98193.25;;;22.48;63.79
72525;BME280;60547;48.502;8.996;2022-10-30T14:40:37;98192.91;;;21.81;65.71
72525;BME280;60547;48.502;8.996;2022-10-30T14:45:49;98196.03;;;21.46;65.63
72525;BME280;60547;48.502;8.996;2022-10-30T14:48:34;98197.53;;;21.41;66.59
72525;BME280;60547;48.502;8.996;2022-10-30T14:51:23;98203.84;;;21.25;70.10
72525;BME280;60547;48.502;8.996;2022-10-30T14:56:48;98208.59;;;20.87;69.38
72525;BME280;60547;48.502;8.996;2022-10-30T15:07:21;98216.66;;;20.28;73.92
72525;BME280;60547;48.502;8.996;2022-10-30T15:15:31;98214.53;;;20.03;75.07
72525;BME280;60547;48.502;8.996;2022-10-30T15:18:01;98228.16;;;20.04;74.72
72525;BME280;60547;48.502;8.996;2022-10-30T15:20:30;98217.41;;;19.88;75.79
72525;BME280;60547;48.502;8.996;2022-10-30T15:23:00;98220.44;;;19.84;76.38
72525;BME280;60547;48.502;8.996;2022-10-30T15:25:44;98221.81;;;19.74;74.57
72525;BME280;60547;48.502;8.996;2022-10-30T15:28:14;98223.69;;;19.62;75.54
72525;BME280;60547;48.502;8.996;2022-10-30T15:31:42;98224.75;;;19.50;76.01
72525;BME280;60547;48.502;8.996;2022-10-30T15:33:43;98224.69;;;19.45;75.26